createdAt,value
2018-12-26T00:01:14.241Z,0
2018-12-26T00:01:59.480Z,0
2018-12-26T00:02:59.491Z,0
2018-12-26T00:03:59.513Z,0
2018-12-26T00:04:59.523Z,0
2018-12-26T00:05:59.545Z,0
2018-12-26T00:07:14.222Z,0
2018-12-26T00:07:59.569Z,0
2018-12-26T00:08:59.587Z,0
2018-12-26T00:09:59.607Z,0
2018-12-26T00:10:59.716Z,0
2018-12-26T00:11:59.634Z,0
2018-12-26T00:12:59.655Z,0
2018-12-26T00:15:14.713Z,0
2018-12-26T00:15:59.694Z,0
2018-12-26T00:17:14.391Z,0
2018-12-26T00:17:59.746Z,0
2018-12-26T00:18:59.743Z,0
2018-12-26T00:20:00.087Z,0
2018-12-26T00:20:59.872Z,0
2018-12-26T00:21:59.788Z,0
2018-12-26T00:22:59.804Z,0
2018-12-26T00:24:00.153Z,0
2018-12-26T00:24:59.835Z,0
2018-12-26T00:26:06.534Z,0
2018-12-26T00:27:14.530Z,0
2018-12-26T00:28:59.902Z,0
2018-12-26T00:29:59.922Z,0
2018-12-26T00:30:59.928Z,0
2018-12-26T00:31:59.954Z,0
2018-12-26T00:33:14.633Z,0
2018-12-26T00:33:59.977Z,0
2018-12-26T00:34:59.993Z,0
2018-12-26T00:36:00.007Z,0
2018-12-26T00:37:00.021Z,0
2018-12-26T00:38:00.041Z,0
2018-12-26T00:39:00.156Z,0
2018-12-26T00:40:00.087Z,0
2018-12-26T00:41:00.088Z,0
2018-12-26T00:42:00.122Z,0
2018-12-26T00:43:00.116Z,0
2018-12-26T00:44:00.143Z,0
2018-12-26T00:45:00.194Z,0
2018-12-26T00:46:00.163Z,0
2018-12-26T00:47:00.180Z,0
2018-12-26T00:48:00.199Z,0
2018-12-26T00:49:14.877Z,0
2018-12-26T00:50:00.244Z,0
2018-12-26T00:51:00.243Z,0
2018-12-26T00:52:00.258Z,0
2018-12-26T00:53:00.278Z,0
2018-12-26T00:54:00.290Z,0
2018-12-26T00:55:00.304Z,0
2018-12-26T00:56:00.324Z,0
2018-12-26T00:57:00.339Z,0
2018-12-26T00:58:15.015Z,0
2018-12-26T00:59:15.030Z,0
2018-12-26T01:01:00.484Z,0
2018-12-26T01:02:15.081Z,0
2018-12-26T01:03:00.431Z,0
2018-12-26T01:04:15.109Z,0
2018-12-26T01:05:00.463Z,0
2018-12-26T01:06:00.476Z,0
2018-12-26T01:07:00.498Z,0
2018-12-26T01:08:00.511Z,0
2018-12-26T01:09:00.525Z,0
2018-12-26T01:10:00.540Z,0
2018-12-26T01:11:00.557Z,0
2018-12-26T01:12:00.573Z,0
2018-12-26T01:13:00.589Z,0
2018-12-26T01:14:00.603Z,0
2018-12-26T01:15:15.280Z,0
2018-12-26T01:16:00.637Z,0
2018-12-26T01:17:00.652Z,0
2018-12-26T01:18:00.689Z,0
2018-12-26T01:19:00.687Z,0
2018-12-26T01:20:00.695Z,0
2018-12-26T01:21:00.709Z,0
2018-12-26T01:22:00.734Z,0
2018-12-26T01:23:00.751Z,0
2018-12-26T01:24:00.761Z,0
2018-12-26T01:25:00.776Z,0
2018-12-26T01:26:00.791Z,0
2018-12-26T01:27:00.807Z,0
2018-12-26T01:28:00.826Z,0
2018-12-26T01:29:15.502Z,0
2018-12-26T01:30:15.517Z,0
2018-12-26T01:32:00.885Z,0
2018-12-26T01:33:00.901Z,0
2018-12-26T01:34:00.919Z,0
2018-12-26T01:36:15.611Z,0
2018-12-26T01:37:00.963Z,0
2018-12-26T01:38:00.982Z,0
2018-12-26T01:39:00.998Z,0
2018-12-26T01:40:01.015Z,0
2018-12-26T01:41:01.036Z,0
2018-12-26T01:42:01.041Z,0
2018-12-26T01:43:15.723Z,0
2018-12-26T01:44:01.071Z,0
2018-12-26T01:45:01.408Z,0
2018-12-26T01:46:01.200Z,0
2018-12-26T01:47:01.120Z,0
2018-12-26T01:48:01.134Z,0
2018-12-26T01:50:15.838Z,0
2018-12-26T01:51:01.181Z,0
2018-12-26T01:52:15.862Z,0
2018-12-26T01:53:01.217Z,0
2018-12-26T01:54:01.233Z,0
2018-12-26T01:55:01.340Z,0
2018-12-26T01:56:01.274Z,0
2018-12-26T01:57:15.946Z,0
2018-12-26T01:58:01.294Z,0
2018-12-26T01:59:01.313Z,0
2018-12-26T02:00:15.990Z,0
2018-12-26T02:01:01.345Z,0
2018-12-26T02:02:01.371Z,0
2018-12-26T02:03:16.034Z,0
2018-12-26T02:04:01.389Z,0
2018-12-26T02:05:01.406Z,0
2018-12-26T02:06:01.421Z,0
2018-12-26T02:07:01.434Z,0
2018-12-26T02:08:16.114Z,0
2018-12-26T02:09:01.479Z,0
2018-12-26T02:10:01.483Z,0
2018-12-26T02:11:01.501Z,0
2018-12-26T02:12:01.513Z,0
2018-12-26T02:13:01.531Z,0
2018-12-26T02:14:01.646Z,0
2018-12-26T02:15:01.608Z,0
2018-12-26T02:16:16.241Z,0
2018-12-26T02:17:01.587Z,0
2018-12-26T02:18:01.611Z,0
2018-12-26T02:19:01.621Z,0
2018-12-26T02:20:16.306Z,0
2018-12-26T02:21:01.658Z,0
2018-12-26T02:22:01.670Z,0
2018-12-26T02:24:16.372Z,0
2018-12-26T02:25:01.724Z,0
2018-12-26T02:26:01.841Z,0
2018-12-26T02:27:01.748Z,0
2018-12-26T02:28:01.766Z,0
2018-12-26T02:29:01.783Z,0
2018-12-26T02:30:01.816Z,0
2018-12-26T02:31:01.826Z,0
2018-12-26T02:32:01.831Z,0
2018-12-26T02:34:01.627Z,0
2018-12-26T02:35:01.911Z,0
2018-12-26T02:36:16.559Z,0
2018-12-26T02:37:01.909Z,0
2018-12-26T02:38:01.925Z,0
2018-12-26T02:39:16.605Z,0
2018-12-26T02:41:01.971Z,0
2018-12-26T02:42:01.996Z,0
2018-12-26T02:43:02.020Z,0
2018-12-26T02:44:02.019Z,0
2018-12-26T02:45:02.038Z,0
2018-12-26T02:47:02.075Z,0
2018-12-26T02:48:02.098Z,0
2018-12-26T02:49:02.103Z,0
2018-12-26T02:50:02.112Z,0
2018-12-26T02:52:02.155Z,0
2018-12-26T02:53:02.162Z,0
2018-12-26T02:54:16.847Z,0
2018-12-26T02:55:02.203Z,0
2018-12-26T02:56:02.217Z,0
2018-12-26T02:57:02.230Z,0
2018-12-26T02:58:02.257Z,0
2018-12-26T02:59:02.258Z,0
2018-12-26T03:00:02.374Z,0
2018-12-26T03:01:02.286Z,0
2018-12-26T03:02:02.323Z,0
2018-12-26T03:03:02.392Z,0
2018-12-26T03:04:02.340Z,0
2018-12-26T03:05:17.009Z,0
2018-12-26T03:06:02.373Z,0
2018-12-26T03:07:17.051Z,0
2018-12-26T03:08:02.400Z,0
2018-12-26T03:09:02.418Z,0
2018-12-26T03:10:02.534Z,0
2018-12-26T03:11:17.104Z,0
2018-12-26T03:12:02.463Z,0
2018-12-26T03:13:02.479Z,0
2018-12-26T03:14:03.279Z,0
2018-12-26T03:15:02.712Z,0
2018-12-26T03:16:02.520Z,0
2018-12-26T03:17:17.206Z,0
2018-12-26T03:18:02.569Z,0
2018-12-26T03:19:02.569Z,0
2018-12-26T03:20:02.590Z,0
2018-12-26T03:21:02.602Z,0
2018-12-26T03:22:02.620Z,0
2018-12-26T03:23:02.633Z,0
2018-12-26T03:24:02.653Z,0
2018-12-26T03:25:17.324Z,0
2018-12-26T03:26:02.681Z,0
2018-12-26T03:28:02.711Z,0
2018-12-26T03:29:02.726Z,0
2018-12-26T03:30:02.744Z,0
2018-12-26T03:31:02.823Z,0
2018-12-26T03:32:02.837Z,0
2018-12-26T03:33:02.809Z,0
2018-12-26T03:34:02.804Z,0
2018-12-26T03:35:02.822Z,0
2018-12-26T03:36:02.593Z,0
2018-12-26T03:37:02.862Z,0
2018-12-26T03:38:02.865Z,0
2018-12-26T03:39:02.892Z,0
2018-12-26T03:40:02.902Z,0
2018-12-26T03:41:02.911Z,0
2018-12-26T03:42:02.926Z,0
2018-12-26T03:43:17.607Z,0
2018-12-26T03:45:17.647Z,0
2018-12-26T03:46:02.995Z,0
2018-12-26T03:47:03.019Z,0
2018-12-26T03:48:03.025Z,0
2018-12-26T03:49:03.057Z,0
2018-12-26T03:50:03.054Z,0
2018-12-26T03:51:17.735Z,0
2018-12-26T03:52:04.633Z,0
2018-12-26T03:54:03.114Z,0
2018-12-26T03:55:03.137Z,0
2018-12-26T03:56:03.152Z,0
2018-12-26T03:57:13.061Z,0
2018-12-26T03:58:03.180Z,0
2018-12-26T03:59:17.878Z,0
2018-12-26T04:00:03.213Z,0
2018-12-26T04:01:03.231Z,0
2018-12-26T04:02:03.245Z,0
2018-12-26T04:03:03.267Z,0
2018-12-26T04:04:03.272Z,0
2018-12-26T04:05:03.287Z,0
2018-12-26T04:07:03.327Z,0
2018-12-26T04:08:03.341Z,0
2018-12-26T04:09:18.039Z,0
2018-12-26T04:10:03.511Z,0
2018-12-26T04:11:03.406Z,0
2018-12-26T04:12:03.407Z,0
2018-12-26T04:13:03.422Z,0
2018-12-26T04:14:18.097Z,0
2018-12-26T04:15:03.457Z,0
2018-12-26T04:16:03.461Z,0
2018-12-26T04:17:03.484Z,0
2018-12-26T04:18:03.503Z,0
2018-12-26T04:19:03.519Z,0
2018-12-26T04:20:03.536Z,0
2018-12-26T04:21:03.544Z,0
2018-12-26T04:23:03.569Z,0
2018-12-26T04:24:03.596Z,0
2018-12-26T04:25:18.267Z,0
2018-12-26T04:26:03.630Z,0
2018-12-26T04:27:03.655Z,0
2018-12-26T04:28:03.655Z,0
2018-12-26T04:29:03.669Z,0
2018-12-26T04:30:03.696Z,0
2018-12-26T04:31:03.702Z,0
2018-12-26T04:32:03.721Z,0
2018-12-26T04:33:03.732Z,0
2018-12-26T04:34:03.747Z,0
2018-12-26T04:35:03.794Z,0
2018-12-26T04:36:03.778Z,0
2018-12-26T04:37:03.800Z,0
2018-12-26T04:38:03.808Z,0
2018-12-26T04:39:03.824Z,0
2018-12-26T04:40:03.846Z,0
2018-12-26T04:41:03.869Z,0
2018-12-26T04:43:03.640Z,0
2018-12-26T04:45:03.928Z,0
2018-12-26T04:46:18.595Z,0
2018-12-26T04:47:03.703Z,0
2018-12-26T04:48:03.973Z,0
2018-12-26T04:49:03.990Z,0
2018-12-26T04:51:04.011Z,0
2018-12-26T04:52:04.053Z,0
2018-12-26T04:53:18.707Z,0
2018-12-26T04:54:04.055Z,0
2018-12-26T04:55:18.736Z,0
2018-12-26T04:56:04.101Z,0
2018-12-26T04:58:04.121Z,0
2018-12-26T05:01:04.168Z,0
2018-12-26T05:02:18.845Z,0
2018-12-26T05:03:04.200Z,0
2018-12-26T05:04:04.218Z,0
2018-12-26T05:05:18.904Z,0
2018-12-26T05:06:04.248Z,0
2018-12-26T05:07:04.265Z,0
2018-12-26T05:08:04.281Z,0
2018-12-26T05:09:04.297Z,0
2018-12-26T05:10:04.312Z,0
2018-12-26T05:11:04.323Z,0
2018-12-26T05:12:19.010Z,0
2018-12-26T05:13:04.358Z,0
2018-12-26T05:14:19.048Z,0
2018-12-26T05:15:04.396Z,0
2018-12-26T05:16:04.499Z,0
2018-12-26T05:17:04.437Z,0
2018-12-26T05:18:19.103Z,0
2018-12-26T05:19:04.458Z,0
2018-12-26T05:20:04.478Z,0
2018-12-26T05:21:04.483Z,0
2018-12-26T05:22:04.516Z,0
2018-12-26T05:23:04.514Z,0
2018-12-26T05:24:04.634Z,0
2018-12-26T05:25:19.210Z,0
2018-12-26T05:26:04.560Z,0
2018-12-26T05:27:04.590Z,0
2018-12-26T05:28:04.601Z,0
2018-12-26T05:29:04.611Z,0
2018-12-26T05:30:04.623Z,0
2018-12-26T05:32:04.657Z,0
2018-12-26T05:34:19.357Z,0
2018-12-26T05:35:04.457Z,0
2018-12-26T05:36:04.720Z,0
2018-12-26T05:37:04.730Z,0
2018-12-26T05:38:04.753Z,0
2018-12-26T05:39:04.763Z,0
2018-12-26T05:40:04.812Z,0
2018-12-26T05:41:19.461Z,0
2018-12-26T05:42:04.810Z,0
2018-12-26T05:43:04.825Z,0
2018-12-26T05:44:19.552Z,0
2018-12-26T05:45:04.892Z,0
2018-12-26T05:46:04.883Z,0
2018-12-26T05:47:19.555Z,0
2018-12-26T05:48:04.910Z,0
2018-12-26T05:49:19.588Z,0
2018-12-26T05:50:04.935Z,0
2018-12-26T05:51:04.954Z,0
2018-12-26T05:53:04.988Z,0
2018-12-26T05:54:05.002Z,0
2018-12-26T05:55:05.040Z,0
2018-12-26T05:56:04.792Z,0
2018-12-26T05:57:05.063Z,0
2018-12-26T05:58:05.066Z,0
2018-12-26T05:59:05.079Z,0
2018-12-26T06:00:05.095Z,0
2018-12-26T06:02:05.134Z,0
2018-12-26T06:03:05.153Z,0
2018-12-26T06:04:05.158Z,0
2018-12-26T06:05:05.299Z,0
2018-12-26T06:06:05.191Z,0
2018-12-26T06:07:05.205Z,0
2018-12-26T06:08:05.222Z,0
2018-12-26T06:09:04.989Z,0
2018-12-26T06:10:05.252Z,0
2018-12-26T06:11:05.273Z,0
2018-12-26T06:12:05.290Z,0
2018-12-26T06:14:05.318Z,0
2018-12-26T06:15:19.996Z,0
2018-12-26T06:16:05.351Z,0
2018-12-26T06:17:05.363Z,0
2018-12-26T06:20:20.070Z,0
2018-12-26T06:21:20.089Z,0
2018-12-26T06:22:05.439Z,0
2018-12-26T06:23:05.462Z,0
2018-12-26T06:24:05.471Z,0
2018-12-26T06:25:05.513Z,0
2018-12-26T06:26:20.270Z,0
2018-12-26T06:27:20.296Z,0
2018-12-26T06:28:05.542Z,0
2018-12-26T06:29:05.549Z,0
2018-12-26T06:30:05.316Z,0
2018-12-26T06:31:05.581Z,0
2018-12-26T06:32:05.627Z,0
2018-12-26T06:33:05.619Z,0
2018-12-26T06:35:05.651Z,0
2018-12-26T06:36:05.662Z,0
2018-12-26T06:37:20.342Z,0
2018-12-26T06:38:06.364Z,0
2018-12-26T06:39:05.710Z,0
2018-12-26T06:40:05.723Z,0
2018-12-26T06:41:05.741Z,0
2018-12-26T06:42:20.424Z,0
2018-12-26T06:43:05.768Z,0
2018-12-26T06:44:05.553Z,0
2018-12-26T06:45:05.806Z,0
2018-12-26T06:46:05.822Z,0
2018-12-26T06:48:05.851Z,0
2018-12-26T06:49:05.870Z,4
2018-12-26T06:50:05.879Z,0
2018-12-26T06:51:05.895Z,4
2018-12-26T06:52:05.913Z,4
2018-12-26T06:53:20.588Z,0
2018-12-26T06:54:05.942Z,4
2018-12-26T06:55:05.961Z,4
2018-12-26T06:56:05.729Z,4
2018-12-26T06:57:05.990Z,4
2018-12-26T06:59:06.027Z,4
2018-12-26T07:00:06.044Z,8
2018-12-26T07:01:06.052Z,8
2018-12-26T07:02:06.066Z,8
2018-12-26T07:03:06.082Z,12
2018-12-26T07:04:06.099Z,8
2018-12-26T07:05:20.779Z,12
2018-12-26T07:06:20.854Z,12
2018-12-26T07:07:06.154Z,16
2018-12-26T07:08:06.166Z,16
2018-12-26T07:09:20.843Z,16
2018-12-26T07:11:06.214Z,20
2018-12-26T07:12:06.229Z,28
2018-12-26T07:13:06.240Z,32
2018-12-26T07:14:06.260Z,28
2018-12-26T07:15:06.026Z,32
2018-12-26T07:16:06.296Z,28
2018-12-26T07:17:06.301Z,28
2018-12-26T07:18:06.321Z,28
2018-12-26T07:19:06.086Z,36
2018-12-26T07:20:06.350Z,36
2018-12-26T07:21:06.365Z,52
2018-12-26T07:23:21.060Z,52
2018-12-26T07:24:21.074Z,60
2018-12-26T07:25:06.439Z,56
2018-12-26T07:26:06.444Z,60
2018-12-26T07:27:06.459Z,56
2018-12-26T07:28:14.058Z,72
2018-12-26T07:29:08.184Z,56
2018-12-26T07:30:06.503Z,72
2018-12-26T07:31:06.523Z,56
2018-12-26T07:32:06.539Z,60
2018-12-26T07:33:21.216Z,56
2018-12-26T07:34:08.174Z,52
2018-12-26T07:35:06.596Z,60
2018-12-26T07:36:21.265Z,68
2018-12-26T07:37:06.613Z,88
2018-12-26T07:38:21.293Z,88
2018-12-26T07:39:06.650Z,92
2018-12-26T07:40:06.663Z,96
2018-12-26T07:41:06.677Z,104
2018-12-26T07:42:06.694Z,104
2018-12-26T07:43:06.715Z,96
2018-12-26T07:44:06.727Z,124
2018-12-26T07:45:06.770Z,116
2018-12-26T07:46:06.761Z,116
2018-12-26T07:47:06.777Z,144
2018-12-26T07:48:21.451Z,128
2018-12-26T07:49:21.475Z,140
2018-12-26T07:50:06.822Z,144
2018-12-26T07:51:06.591Z,160
2018-12-26T07:52:06.857Z,168
2018-12-26T07:53:21.525Z,172
2018-12-26T07:54:06.885Z,164
2018-12-26T07:56:21.577Z,128
2018-12-26T07:57:06.992Z,120
2018-12-26T07:58:06.945Z,140
2018-12-26T07:59:06.963Z,168
2018-12-26T08:00:06.976Z,128
2018-12-26T08:01:08.027Z,136
2018-12-26T08:02:07.019Z,204
2018-12-26T08:03:07.021Z,208
2018-12-26T08:04:21.703Z,188
2018-12-26T08:05:07.054Z,192
2018-12-26T08:06:21.729Z,188
2018-12-26T08:07:07.084Z,180
2018-12-26T08:08:07.097Z,184
2018-12-26T08:09:07.118Z,228
2018-12-26T08:10:21.790Z,236
2018-12-26T08:11:07.155Z,216
2018-12-26T08:12:36.492Z,312
2018-12-26T08:13:07.185Z,328
2018-12-26T08:15:15.059Z,268
2018-12-26T08:16:07.227Z,272
2018-12-26T08:17:07.239Z,288
2018-12-26T08:18:07.260Z,228
2018-12-26T08:19:07.269Z,284
2018-12-26T08:20:07.290Z,268
2018-12-26T08:21:07.302Z,320
2018-12-26T08:22:07.319Z,320
2018-12-26T08:23:07.434Z,304
2018-12-26T08:25:07.413Z,304
2018-12-26T08:26:07.386Z,252
2018-12-26T08:27:07.396Z,276
2018-12-26T08:28:29.126Z,308
2018-12-26T08:29:07.429Z,336
2018-12-26T08:30:07.445Z,308
2018-12-26T08:31:07.455Z,328
2018-12-26T08:32:07.479Z,368
2018-12-26T08:33:07.494Z,416
2018-12-26T08:34:07.504Z,428
2018-12-26T08:35:22.185Z,448
2018-12-26T08:36:07.534Z,468
2018-12-26T08:37:07.554Z,412
2018-12-26T08:39:07.581Z,520
2018-12-26T08:40:22.287Z,456
2018-12-26T08:41:07.623Z,396
2018-12-26T08:42:07.642Z,372
2018-12-26T08:43:07.646Z,404
2018-12-26T08:44:22.332Z,456
2018-12-26T08:45:07.677Z,444
2018-12-26T08:46:07.697Z,540
2018-12-26T08:47:07.706Z,552
2018-12-26T08:48:07.724Z,480
2018-12-26T08:49:07.738Z,444
2018-12-26T08:50:07.873Z,432
2018-12-26T08:51:07.771Z,440
2018-12-26T08:52:07.914Z,460
2018-12-26T08:53:07.806Z,528
2018-12-26T08:54:07.828Z,520
2018-12-26T08:55:07.831Z,492
2018-12-26T08:56:08.054Z,564
2018-12-26T08:57:22.528Z,656
2018-12-26T08:58:07.880Z,716
2018-12-26T08:59:22.558Z,732
2018-12-26T09:00:07.918Z,700
2018-12-26T09:01:07.931Z,748
2018-12-26T09:02:07.951Z,904
2018-12-26T09:03:07.957Z,796
2018-12-26T09:04:07.974Z,692
2018-12-26T09:05:08.010Z,700
2018-12-26T09:06:08.018Z,708
2018-12-26T09:07:08.024Z,832
2018-12-26T09:08:08.038Z,884
2018-12-26T09:09:08.058Z,956
2018-12-26T09:10:22.732Z,820
2018-12-26T09:11:08.085Z,828
2018-12-26T09:12:08.100Z,960
2018-12-26T09:13:08.114Z,880
2018-12-26T09:14:08.132Z,896
2018-12-26T09:15:08.154Z,736
2018-12-26T09:16:08.165Z,688
2018-12-26T09:17:07.946Z,788
2018-12-26T09:18:08.292Z,744
2018-12-26T09:19:22.877Z,692
2018-12-26T09:20:08.223Z,684
2018-12-26T09:21:08.254Z,704
2018-12-26T09:22:08.254Z,652
2018-12-26T09:23:09.468Z,748
2018-12-26T09:24:08.301Z,788
2018-12-26T09:25:08.302Z,740
2018-12-26T09:26:08.322Z,772
2018-12-26T09:27:08.094Z,792
2018-12-26T09:28:08.100Z,912
2018-12-26T09:30:08.488Z,768
2018-12-26T09:31:23.080Z,844
2018-12-26T09:32:08.415Z,924
2018-12-26T09:33:08.430Z,1008
2018-12-26T09:34:08.451Z,1240
2018-12-26T09:35:08.461Z,1256
2018-12-26T09:36:08.473Z,1084
2018-12-26T09:37:08.493Z,980
2018-12-26T09:38:08.504Z,888
2018-12-26T09:39:08.523Z,956
2018-12-26T09:40:23.199Z,1072
2018-12-26T09:41:08.552Z,1196
2018-12-26T09:42:08.572Z,1180
2018-12-26T09:45:08.622Z,1308
2018-12-26T09:46:08.634Z,1544
2018-12-26T09:48:08.414Z,1592
2018-12-26T09:49:08.690Z,1652
2018-12-26T09:50:08.698Z,1432
2018-12-26T09:51:08.709Z,1192
2018-12-26T09:52:08.736Z,1076
2018-12-26T09:53:08.739Z,1388
2018-12-26T09:54:08.759Z,1736
2018-12-26T09:55:08.776Z,1640
2018-12-26T09:56:23.451Z,1268
2018-12-26T09:57:08.804Z,1164
2018-12-26T09:58:08.819Z,1468
2018-12-26T09:59:08.834Z,1432
2018-12-26T10:00:08.851Z,1056
2018-12-26T10:01:08.872Z,1284
2018-12-26T10:02:08.885Z,1384
2018-12-26T10:03:23.562Z,1256
2018-12-26T10:04:08.920Z,1080
2018-12-26T10:05:08.927Z,1144
2018-12-26T10:06:08.945Z,1088
2018-12-26T10:07:08.958Z,964
2018-12-26T10:08:08.975Z,904
2018-12-26T10:09:08.993Z,1088
2018-12-26T10:10:08.761Z,1320
2018-12-26T10:11:23.694Z,1376
2018-12-26T10:12:09.039Z,1272
2018-12-26T10:13:09.051Z,1416
2018-12-26T10:14:09.070Z,1248
2018-12-26T10:15:23.747Z,1372
2018-12-26T10:16:23.764Z,1596
2018-12-26T10:17:09.114Z,1264
2018-12-26T10:18:09.143Z,1016
2018-12-26T10:19:23.814Z,924
2018-12-26T10:20:09.171Z,968
2018-12-26T10:21:09.182Z,1372
2018-12-26T10:22:09.284Z,1552
2018-12-26T10:23:09.209Z,1652
2018-12-26T10:24:09.225Z,1348
2018-12-26T10:25:09.247Z,1316
2018-12-26T10:27:09.279Z,944
2018-12-26T10:28:09.298Z,804
2018-12-26T10:29:09.315Z,916
2018-12-26T10:30:09.318Z,1028
2018-12-26T10:31:09.530Z,1488
2018-12-26T10:33:09.367Z,1324
2018-12-26T10:34:24.057Z,988
2018-12-26T10:35:09.399Z,856
2018-12-26T10:36:09.414Z,1152
2018-12-26T10:37:09.432Z,1172
2018-12-26T10:38:09.454Z,1028
2018-12-26T10:39:24.241Z,1108
2018-12-26T10:40:09.480Z,1240
2018-12-26T10:41:09.496Z,1316
2018-12-26T10:42:24.177Z,1504
2018-12-26T10:44:09.546Z,1396
2018-12-26T10:45:09.573Z,1348
2018-12-26T10:47:24.254Z,996
2018-12-26T10:48:09.602Z,1032
2018-12-26T10:50:09.637Z,976
2018-12-26T10:51:09.650Z,984
2018-12-26T10:52:09.666Z,968
2018-12-26T10:53:09.680Z,896
2018-12-26T10:54:09.695Z,1268
2018-12-26T10:55:09.712Z,1220
2018-12-26T10:56:09.728Z,1208
2018-12-26T10:57:24.409Z,1392
2018-12-26T10:58:09.807Z,1276
2018-12-26T10:59:17.309Z,1160
2018-12-26T11:00:24.454Z,1324
2018-12-26T11:01:09.810Z,1352
2018-12-26T11:02:24.484Z,1444
2018-12-26T11:03:09.835Z,1404
2018-12-26T11:04:09.857Z,1224
2018-12-26T11:05:09.874Z,916
2018-12-26T11:06:24.557Z,956
2018-12-26T11:07:09.910Z,984
2018-12-26T11:08:09.919Z,1052
2018-12-26T11:09:09.935Z,1228
2018-12-26T11:10:09.952Z,1588
2018-12-26T11:11:09.965Z,1496
2018-12-26T11:12:09.980Z,1412
2018-12-26T11:13:09.999Z,1064
2018-12-26T11:14:10.011Z,1452
2018-12-26T11:15:24.689Z,1092
2018-12-26T11:16:10.045Z,1004
2018-12-26T11:17:10.058Z,900
2018-12-26T11:18:10.080Z,916
2018-12-26T11:21:10.121Z,1332
2018-12-26T11:22:24.800Z,1168
2018-12-26T11:24:10.179Z,1140
2018-12-26T11:25:10.258Z,1256
2018-12-26T11:26:10.207Z,1200
2018-12-26T11:27:10.215Z,1000
2018-12-26T11:28:10.250Z,976
2018-12-26T11:29:18.297Z,1100
2018-12-26T11:30:10.272Z,1440
2018-12-26T11:31:10.280Z,1764
2018-12-26T11:32:10.296Z,1752
2018-12-26T11:33:10.311Z,1616
2018-12-26T11:34:10.437Z,1116
2018-12-26T11:35:10.342Z,884
2018-12-26T11:37:10.374Z,920
2018-12-26T11:38:25.051Z,920
2018-12-26T11:39:10.449Z,944
2018-12-26T11:40:10.422Z,1180
2018-12-26T11:41:12.431Z,1260
2018-12-26T11:42:10.454Z,1380
2018-12-26T11:43:10.471Z,1240
2018-12-26T11:44:10.490Z,1088
2018-12-26T11:45:10.499Z,888
2018-12-26T11:46:10.523Z,984
2018-12-26T11:47:25.212Z,1044
2018-12-26T11:48:10.554Z,952
2018-12-26T11:49:25.227Z,1032
2018-12-26T11:50:10.580Z,1088
2018-12-26T11:51:10.603Z,804
2018-12-26T11:52:12.005Z,756
2018-12-26T11:54:25.319Z,772
2018-12-26T11:56:10.678Z,744
2018-12-26T11:57:10.691Z,804
2018-12-26T11:58:10.712Z,856
2018-12-26T11:59:10.730Z,1152
2018-12-26T12:00:10.742Z,1164
2018-12-26T12:01:10.765Z,876
2018-12-26T12:02:25.436Z,864
2018-12-26T12:03:25.454Z,872
2018-12-26T12:04:11.005Z,744
2018-12-26T12:07:25.520Z,764
2018-12-26T12:08:10.868Z,844
2018-12-26T12:09:25.547Z,816
2018-12-26T12:10:10.901Z,752
2018-12-26T12:11:10.917Z,976
2018-12-26T12:12:10.929Z,868
2018-12-26T12:14:11.028Z,872
2018-12-26T12:15:11.081Z,880
2018-12-26T12:16:10.990Z,772
2018-12-26T12:17:11.062Z,1032
2018-12-26T12:18:10.778Z,924
2018-12-26T12:19:11.152Z,1032
2018-12-26T12:20:11.065Z,784
2018-12-26T12:21:25.737Z,868
2018-12-26T12:22:11.087Z,908
2018-12-26T12:23:11.111Z,912
2018-12-26T12:24:10.972Z,928
2018-12-26T12:25:11.152Z,804
2018-12-26T12:26:11.149Z,652
2018-12-26T12:27:11.168Z,848
2018-12-26T12:28:25.852Z,712
2018-12-26T12:29:11.206Z,672
2018-12-26T12:30:11.221Z,660
2018-12-26T12:31:11.233Z,640
2018-12-26T12:32:11.254Z,628
2018-12-26T12:33:25.927Z,748
2018-12-26T12:34:11.283Z,740
2018-12-26T12:35:25.961Z,764
2018-12-26T12:36:12.994Z,984
2018-12-26T12:37:25.995Z,1080
2018-12-26T12:38:11.094Z,860
2018-12-26T12:39:11.356Z,1012
2018-12-26T12:40:11.376Z,904
2018-12-26T12:41:26.059Z,980
2018-12-26T12:42:11.404Z,996
2018-12-26T12:43:11.423Z,1064
2018-12-26T12:44:11.445Z,936
2018-12-26T12:45:11.458Z,944
2018-12-26T12:46:11.467Z,1128
2018-12-26T12:47:11.483Z,916
2018-12-26T12:48:11.506Z,1032
2018-12-26T12:49:11.519Z,996
2018-12-26T12:50:11.542Z,796
2018-12-26T12:51:26.211Z,936
2018-12-26T12:52:11.603Z,984
2018-12-26T12:53:11.580Z,912
2018-12-26T12:54:11.604Z,860
2018-12-26T12:55:11.612Z,980
2018-12-26T12:56:19.089Z,904
2018-12-26T12:57:26.305Z,1048
2018-12-26T12:58:11.663Z,948
2018-12-26T12:59:11.674Z,912
2018-12-26T13:00:11.694Z,780
2018-12-26T13:01:11.704Z,816
2018-12-26T13:02:11.728Z,944
2018-12-26T13:03:11.752Z,748
2018-12-26T13:04:11.765Z,752
2018-12-26T13:05:11.770Z,704
2018-12-26T13:06:11.786Z,716
2018-12-26T13:07:11.991Z,744
2018-12-26T13:08:13.251Z,776
2018-12-26T13:09:11.834Z,704
2018-12-26T13:11:11.870Z,752
2018-12-26T13:12:11.882Z,716
2018-12-26T13:13:26.562Z,712
2018-12-26T13:14:11.915Z,600
2018-12-26T13:15:11.940Z,616
2018-12-26T13:16:11.716Z,600
2018-12-26T13:17:26.632Z,620
2018-12-26T13:18:12.012Z,652
2018-12-26T13:19:26.660Z,616
2018-12-26T13:20:12.017Z,576
2018-12-26T13:21:12.086Z,600
2018-12-26T13:22:26.705Z,620
2018-12-26T13:23:12.061Z,556
2018-12-26T13:24:12.095Z,560
2018-12-26T13:25:12.087Z,584
2018-12-26T13:26:12.113Z,532
2018-12-26T13:27:12.124Z,548
2018-12-26T13:28:12.136Z,532
2018-12-26T13:29:26.814Z,532
2018-12-26T13:30:12.169Z,520
2018-12-26T13:31:12.589Z,508
2018-12-26T13:32:12.202Z,452
2018-12-26T13:33:12.216Z,468
2018-12-26T13:34:26.899Z,532
2018-12-26T13:35:12.247Z,512
2018-12-26T13:36:12.264Z,524
2018-12-26T13:37:12.278Z,504
2018-12-26T13:38:12.299Z,452
2018-12-26T13:39:12.313Z,420
2018-12-26T13:40:12.327Z,428
2018-12-26T13:41:12.346Z,428
2018-12-26T13:42:12.367Z,444
2018-12-26T13:43:12.378Z,504
2018-12-26T13:44:27.062Z,484
2018-12-26T13:45:12.407Z,456
2018-12-26T13:46:12.180Z,468
2018-12-26T13:47:12.441Z,520
2018-12-26T13:48:12.459Z,444
2018-12-26T13:49:12.470Z,460
2018-12-26T13:50:12.492Z,364
2018-12-26T13:51:12.518Z,380
2018-12-26T13:52:12.521Z,340
2018-12-26T13:53:12.532Z,420
2018-12-26T13:54:27.212Z,404
2018-12-26T13:55:12.572Z,400
2018-12-26T13:56:12.582Z,344
2018-12-26T13:58:12.370Z,312
2018-12-26T13:59:12.640Z,336
2018-12-26T14:00:12.647Z,320
2018-12-26T14:01:12.664Z,292
2018-12-26T14:02:12.682Z,296
2018-12-26T14:03:12.692Z,272
2018-12-26T14:04:12.707Z,296
2018-12-26T14:05:12.727Z,264
2018-12-26T14:06:12.743Z,292
2018-12-26T14:07:12.757Z,324
2018-12-26T14:08:12.772Z,320
2018-12-26T14:09:27.451Z,296
2018-12-26T14:10:12.808Z,288
2018-12-26T14:11:12.820Z,292
2018-12-26T14:12:12.833Z,284
2018-12-26T14:13:27.520Z,292
2018-12-26T14:14:12.867Z,296
2018-12-26T14:15:12.888Z,232
2018-12-26T14:16:27.562Z,220
2018-12-26T14:17:12.915Z,208
2018-12-26T14:18:12.932Z,184
2018-12-26T14:19:13.041Z,200
2018-12-26T14:20:12.960Z,204
2018-12-26T14:21:12.987Z,208
2018-12-26T14:22:12.994Z,216
2018-12-26T14:23:13.020Z,192
2018-12-26T14:24:13.024Z,216
2018-12-26T14:25:13.039Z,168
2018-12-26T14:26:13.058Z,156
2018-12-26T14:27:31.849Z,160
2018-12-26T14:28:27.751Z,140
2018-12-26T14:29:27.775Z,136
2018-12-26T14:31:13.133Z,152
2018-12-26T14:32:27.818Z,152
2018-12-26T14:33:13.169Z,140
2018-12-26T14:34:13.189Z,128
2018-12-26T14:35:13.206Z,108
2018-12-26T14:36:13.215Z,100
2018-12-26T14:37:13.234Z,108
2018-12-26T14:38:13.248Z,96
2018-12-26T14:39:27.930Z,100
2018-12-26T14:40:13.285Z,96
2018-12-26T14:41:13.381Z,88
2018-12-26T14:42:13.313Z,84
2018-12-26T14:43:13.331Z,80
2018-12-26T14:44:13.343Z,60
2018-12-26T14:45:28.026Z,64
2018-12-26T14:46:13.374Z,60
2018-12-26T14:48:28.072Z,48
2018-12-26T14:49:14.025Z,48
2018-12-26T14:50:13.446Z,52
2018-12-26T14:51:13.462Z,48
2018-12-26T14:52:13.469Z,52
2018-12-26T14:53:13.489Z,40
2018-12-26T14:54:13.500Z,40
2018-12-26T14:55:13.517Z,40
2018-12-26T14:56:13.533Z,36
2018-12-26T14:57:13.549Z,32
2018-12-26T14:58:13.320Z,28
2018-12-26T14:59:13.582Z,28
2018-12-26T15:00:22.242Z,24
2018-12-26T15:01:28.276Z,24
2018-12-26T15:02:13.669Z,20
2018-12-26T15:03:28.308Z,20
2018-12-26T15:04:28.322Z,16
2018-12-26T15:05:13.684Z,16
2018-12-26T15:06:13.694Z,12
2018-12-26T15:07:13.761Z,16
2018-12-26T15:08:13.725Z,12
2018-12-26T15:09:13.740Z,12
2018-12-26T15:10:13.757Z,12
2018-12-26T15:11:13.781Z,8
2018-12-26T15:12:13.787Z,4